Time;durP1;ratioP1;P1;durP2;ratioP2;P2;SDS_P1;SDS_P2;PMS_P1;PMS_P2;Temp;Humidity;BMP_temperature;BMP_pressure;BME280_temperature;BME280_humidity;BME280_pressure;Samples;Min_cycle;Max_cycle;Signal;HPM_P1;HPM_P2
2024/01/26 00:04:23;;;;;;;1.40;0.17;;;;;;;6.76;100.00;100010.09;4937756;29;20124;-96
2024/01/26 00:07:47;;;;;;;1.67;0.20;;;;;;;6.79;100.00;100022.13;4951347;28;20042;-96
2024/01/26 00:11:17;;;;;;;0.20;0.10;;;;;;;6.71;100.00;100020.16;4896357;29;20044;-96
2024/01/26 00:14:10;;;;;;;2.08;0.30;;;;;;;6.65;100.00;100007.56;4926374;29;20668;-96
2024/01/26 00:37:49;;;;;;;;;;;;;;;;;;;;;
2024/01/26 00:42:18;;;;;;;;;;;;;;;;;;;;;
2024/01/26 00:59:20;;;;;;;;;;;;;;;;;;;;;
2024/01/26 01:06:45;;;;;;;;;;;;;;;;;;;;;
2024/01/26 01:10:05;;;;;;;2.70;0.57;;;;;;;6.13;100.00;100200.69;4814338;29;20062;-90
2024/01/26 01:12:46;;;;;;;3.67;0.25;;;;;;;6.05;100.00;100209.19;4844699;29;20052;-89
2024/01/26 01:18:53;;;;;;;3.38;0.40;;;;;;;5.81;100.00;100231.09;4938489;29;20098;-87
2024/01/26 01:21:23;;;;;;;2.10;0.30;;;;;;;5.78;100.00;100243.63;4964939;28;20130;-87
2024/01/26 01:23:52;;;;;;;3.97;0.50;;;;;;;5.68;100.00;100252.22;4967473;28;20503;-92
2024/01/26 01:26:20;;;;;;;8.20;0.98;;;;;;;5.68;100.00;100267.09;4972623;28;20046;-89
2024/01/26 01:29:10;;;;;;;2.40;0.32;;;;;;;5.74;100.00;100274.50;4953055;28;20031;-90
2024/01/26 01:32:29;;;;;;;7.40;0.77;;;;;;;5.68;100.00;100277.59;4934841;29;20051;-87
2024/01/26 01:35:41;;;;;;;4.53;0.68;;;;;;;5.67;100.00;100289.03;4979838;28;20054;-87
2024/01/26 01:38:23;;;;;;;5.95;0.82;;;;;;;5.62;100.00;100304.28;4902333;29;20048;-90
2024/01/26 01:40:52;;;;;;;5.10;0.82;;;;;;;5.58;100.00;100311.53;4922457;29;20042;-90
2024/01/26 01:43:58;;;;;;;6.60;0.93;;;;;;;5.58;100.00;100330.72;4912557;29;20485;-90
2024/01/26 01:46:40;;;;;;;14.15;1.83;;;;;;;5.52;100.00;100340.81;4938901;29;20031;-86
2024/01/26 01:49:06;;;;;;;5.80;0.80;;;;;;;5.52;100.00;100348.69;4905702;29;20038;-85
2024/01/26 01:51:43;;;;;;;6.97;0.85;;;;;;;5.62;100.00;100396.03;4940902;28;20085;-88
2024/01/26 01:57:46;;;;;;;2.65;0.50;;;;;;;5.53;100.00;100419.38;4936828;29;20199;-88
2024/01/26 02:00:15;;;;;;;5.07;0.50;;;;;;;5.32;100.00;100438.31;4904434;29;20557;-88
2024/01/26 02:03:35;;;;;;;3.72;0.52;;;;;;;5.29;100.00;100451.66;4939535;28;20066;-89
2024/01/26 02:06:04;;;;;;;4.03;0.43;;;;;;;5.07;100.00;100440.06;4917243;29;20039;-90
2024/01/26 02:09:20;;;;;;;2.65;0.40;;;;;;;5.05;100.00;100467.31;4941198;29;20062;-89
2024/01/26 02:15:37;;;;;;;6.18;1.35;;;;;;;4.88;100.00;100481.59;4897733;29;20211;-87
2024/01/26 02:18:12;;;;;;;7.25;0.57;;;;;;;4.86;100.00;100501.84;4888123;29;20095;-89
2024/01/26 02:21:07;;;;;;;8.10;0.60;;;;;;;4.80;100.00;100503.06;4896638;29;20071;-91
2024/01/26 02:23:41;;;;;;;3.85;0.52;;;;;;;4.67;100.00;100524.84;4863559;29;20131;-92
2024/01/26 02:26:11;;;;;;;1.92;0.40;;;;;;;4.53;100.00;100520.56;4880252;29;20041;-88
2024/01/26 02:28:58;;;;;;;3.80;0.63;;;;;;;4.57;100.00;100539.53;4865419;29;20119;-89
2024/01/26 02:32:10;;;;;;;7.28;0.80;;;;;;;4.52;100.00;100541.59;4891328;29;20529;-90
2024/01/26 02:40:38;;;;;;;5.25;0.80;;;;;;;4.51;100.00;100566.94;4944572;28;20039;-92
2024/01/26 02:43:47;;;;;;;11.23;1.67;;;;;;;4.46;100.00;100589.94;4944205;28;20042;-93
2024/01/26 02:51:00;;;;;;;8.93;1.00;;;;;;;4.55;100.00;100617.31;4933626;28;20629;-92
2024/01/26 02:54:33;;;;;;;;;;;;;;;;;;;;;
2024/01/26 02:57:25;;;;;;;16.85;1.80;;;;;;;4.48;100.00;100643.03;4957162;28;20024;-88
2024/01/26 03:00:01;;;;;;;22.07;3.53;;;;;;;4.47;100.00;100626.50;4916763;29;20178;-90
2024/01/26 03:05:58;;;;;;;10.73;1.30;;;;;;;4.45;100.00;100627.53;4944478;29;20054;-91
2024/01/26 03:08:49;;;;;;;13.45;1.20;;;;;;;4.52;100.00;100657.63;4945428;29;20027;-88
2024/01/26 03:11:21;;;;;;;12.32;1.45;;;;;;;4.48;100.00;100653.50;4933106;28;20466;-91
2024/01/26 03:18:10;;;;;;;;;;;;;;;;;;;;;
2024/01/26 03:22:02;;;;;;;22.77;1.75;;;;;;;4.40;100.00;100685.41;4911293;29;20518;-93
2024/01/26 03:25:42;;;;;;;6.05;1.15;;;;;;;4.39;100.00;100701.22;4900242;29;20719;-90
2024/01/26 03:28:50;;;;;;;10.05;1.77;;;;;;;4.23;100.00;100712.66;4908206;29;20107;-90
2024/01/26 03:32:25;;;;;;;9.35;1.48;;;;;;;4.28;100.00;100721.06;4893515;29;20522;-91
2024/01/26 03:35:31;;;;;;;10.05;1.00;;;;;;;4.29;100.00;100727.13;4920270;29;20039;-90
2024/01/26 03:38:08;;;;;;;20.02;1.73;;;;;;;4.38;100.00;100737.00;4954859;28;20047;-89
2024/01/26 03:41:24;;;;;;;10.93;1.98;;;;;;;4.37;100.00;100739.72;4952805;28;20715;-91
2024/01/26 03:53:15;;;;;;;10.13;1.58;;;;;;;4.35;100.00;100763.38;4904913;29;20056;-92
2024/01/26 04:03:13;;;;;;;10.43;1.88;;;;;;;4.17;100.00;100789.75;4909348;29;20044;-90
2024/01/26 04:18:54;;;;;;;;;;;;;;;;;;;;;
2024/01/26 04:25:52;;;;;;;7.25;2.05;;;;;;;4.37;100.00;100862.75;4886772;29;20040;-90
2024/01/26 04:28:36;;;;;;;19.17;2.30;;;;;;;4.37;100.00;100873.22;4885500;29;20051;-93
2024/01/26 04:31:23;;;;;;;22.05;3.22;;;;;;;4.33;100.00;100877.81;4941391;28;20035;-91
2024/01/26 04:34:50;;;;;;;13.18;1.70;;;;;;;4.31;100.00;100895.38;4961437;28;20119;-93
2024/01/26 04:42:36;;;;;;;14.73;2.20;;;;;;;4.23;100.00;100914.16;4861999;29;20076;-90
2024/01/26 04:49:47;;;;;;;23.60;1.77;;;;;;;4.15;100.00;100930.31;4804892;29;20035;-92
2024/01/26 04:52:39;;;;;;;20.52;2.75;;;;;;;4.11;100.00;100934.00;4786993;29;20050;-90
2024/01/26 04:55:47;;;;;;;14.70;1.77;;;;;;;4.04;100.00;100940.56;4841360;29;20050;-93
2024/01/26 04:58:22;;;;;;;20.45;2.45;;;;;;;4.02;100.00;100948.50;4855234;29;20050;-93
2024/01/26 05:01:21;;;;;;;19.63;1.98;;;;;;;4.04;100.00;100964.09;4835989;29;20052;-92
2024/01/26 05:03:47;;;;;;;16.20;2.15;;;;;;;3.91;100.00;100962.19;4911252;29;20048;-92
2024/01/26 05:06:23;;;;;;;14.73;2.70;;;;;;;3.93;100.00;100970.78;4907720;29;20067;-92
2024/01/26 05:09:02;;;;;;;17.10;2.67;;;;;;;3.90;100.00;100972.75;4940828;29;20028;-91
2024/01/26 05:11:36;;;;;;;9.98;1.30;;;;;;;3.92;100.00;100976.09;4915595;29;20558;-90
2024/01/26 05:14:12;;;;;;;16.30;2.38;;;;;;;3.83;100.00;100973.09;4937922;29;20035;-94
2024/01/26 05:17:22;;;;;;;22.45;2.42;;;;;;;3.80;100.00;100975.88;4932129;29;20585;-92
2024/01/26 05:19:49;;;;;;;18.00;2.83;;;;;;;3.80;100.00;100981.09;4896172;29;20046;-91
2024/01/26 05:22:18;;;;;;;11.27;1.80;;;;;;;3.81;100.00;100990.63;4892223;29;20039;-91
2024/01/26 05:24:56;;;;;;;16.75;2.10;;;;;;;3.82;100.00;100989.69;4911149;29;20051;-90
2024/01/26 05:27:26;;;;;;;16.38;2.17;;;;;;;3.74;100.00;100983.22;4954210;28;20027;-92
2024/01/26 05:30:04;;;;;;;17.20;2.42;;;;;;;3.85;100.00;100999.97;4943645;28;20485;-92
2024/01/26 05:32:33;;;;;;;;;;;;;;;3.77;100.00;100998.72;4896088;29;20042;-91
2024/01/26 05:39:00;;;;;;;;;;;;;;;;;;;;;
2024/01/26 05:41:27;;;;;;;8.40;1.38;;;;;;;3.70;100.00;101021.75;4943401;29;20130;-90
2024/01/26 05:44:10;;;;;;;13.25;2.10;;;;;;;3.68;100.00;101029.69;4950252;28;20046;-92
2024/01/26 05:46:36;;;;;;;11.75;1.75;;;;;;;3.67;100.00;101038.47;4940181;28;20122;-92
2024/01/26 05:49:02;;;;;;;15.60;1.95;;;;;;;3.62;100.00;101040.50;4913793;29;20035;-91
2024/01/26 05:51:37;;;;;;;16.15;1.77;;;;;;;3.63;100.00;101041.34;4958039;28;20386;-92
2024/01/26 05:54:21;;;;;;;9.13;1.45;;;;;;;3.67;100.00;101050.69;4937872;29;20039;-92
2024/01/26 05:56:47;;;;;;;13.57;1.40;;;;;;;3.64;100.00;101063.94;4923908;28;20103;-91
2024/01/26 05:59:13;;;;;;;16.02;2.40;;;;;;;3.61;100.00;101059.72;4947172;29;20377;-92
2024/01/26 06:01:42;;;;;;;11.07;1.60;;;;;;;3.61;100.00;101070.19;4924749;29;20035;-91
2024/01/26 06:05:28;;;;;;;10.30;1.75;;;;;;;3.60;100.00;101071.09;4929685;28;20049;-91
2024/01/26 06:09:25;;;;;;;11.60;1.30;;;;;;;3.60;100.00;101086.78;4930017;29;20084;-92
2024/01/26 06:11:51;;;;;;;13.02;2.17;;;;;;;3.54;100.00;101092.34;4913683;28;20756;-91
2024/01/26 06:14:29;;;;;;;15.38;1.95;;;;;;;3.62;100.00;101102.38;4955074;28;20090;-93
2024/01/26 06:17:03;;;;;;;21.83;2.33;;;;;;;3.54;100.00;101095.81;4937552;23;20065;-95
2024/01/26 06:19:29;;;;;;;7.80;1.33;;;;;;;3.58;100.00;101107.78;4959926;28;20069;-96
2024/01/26 06:21:55;;;;;;;12.02;2.42;;;;;;;3.57;100.00;101113.06;4970325;28;20030;-96
2024/01/26 06:24:21;;;;;;;21.42;3.38;;;;;;;3.55;100.00;101114.94;4982948;23;20054;-96
2024/01/26 06:26:47;;;;;;;8.27;1.38;;;;;;;3.56;100.00;101119.25;4942792;28;20043;-96
2024/01/26 06:29:13;;;;;;;17.75;1.83;;;;;;;3.50;100.00;101122.19;4917987;29;20035;-96
2024/01/26 06:31:38;;;;;;;14.43;2.38;;;;;;;3.46;100.00;101127.56;4921404;28;20038;-96
2024/01/26 06:34:04;;;;;;;13.77;2.10;;;;;;;3.44;100.00;101139.88;4926966;28;20042;-96
2024/01/26 06:36:30;;;;;;;14.57;2.05;;;;;;;3.42;100.00;101135.66;4944371;28;20426;-96
2024/01/26 06:38:56;;;;;;;11.20;1.67;;;;;;;3.38;100.00;101144.59;4928742;28;20275;-96
2024/01/26 06:41:21;;;;;;;13.82;1.92;;;;;;;3.36;100.00;101149.88;4939123;28;20035;-96
2024/01/26 06:43:53;;;;;;;11.40;1.60;;;;;;;3.28;100.00;101149.44;4937006;29;20163;-96
2024/01/26 06:46:22;;;;;;;11.15;1.55;;;;;;;3.36;100.00;101160.31;4927119;28;20039;-96
2024/01/26 06:48:49;;;;;;;10.68;1.48;;;;;;;3.27;100.00;101159.03;4949683;28;20043;-96
2024/01/26 06:51:15;;;;;;;14.00;2.40;;;;;;;3.28;100.00;101167.75;4958945;28;20034;-96
2024/01/26 06:53:41;;;;;;;10.85;1.50;;;;;;;3.28;100.00;101170.34;4930423;29;20046;-96
2024/01/26 06:56:07;;;;;;;16.50;2.67;;;;;;;3.32;100.00;101188.41;4940579;28;20035;-96
2024/01/26 06:58:33;;;;;;;14.70;1.48;;;;;;;3.35;100.00;101193.47;4928099;28;20161;-96
2024/01/26 07:01:00;;;;;;;18.35;2.13;;;;;;;3.38;100.00;101197.69;4923177;28;20164;-96
2024/01/26 07:03:26;;;;;;;11.55;1.77;;;;;;;3.44;100.00;101199.97;4947597;28;20042;-96
2024/01/26 07:05:52;;;;;;;11.45;1.42;;;;;;;3.46;100.00;101206.00;4922834;28;20068;-95
2024/01/26 07:08:18;;;;;;;10.55;1.70;;;;;;;3.51;100.00;101212.72;4952075;28;20088;-95
2024/01/26 07:10:44;;;;;;;23.50;3.80;;;;;;;3.47;100.00;101206.84;4915958;28;20042;-96
2024/01/26 07:13:10;;;;;;;10.43;2.08;;;;;;;3.44;100.00;101213.06;4945868;28;20469;-96
2024/01/26 07:15:36;;;;;;;20.55;2.30;;;;;;;3.39;100.00;101219.44;4942853;28;20045;-96
2024/01/26 07:18:02;;;;;;;10.82;1.50;;;;;;;3.41;100.00;101233.28;4942969;28;20057;-96
2024/01/26 07:20:28;;;;;;;13.65;1.83;;;;;;;3.34;100.00;101241.41;4920153;28;20071;-96
2024/01/26 07:22:54;;;;;;;17.55;1.48;;;;;;;3.32;100.00;101240.66;4931275;28;20086;-96
2024/01/26 07:25:20;;;;;;;11.52;1.77;;;;;;;3.35;100.00;101252.72;4959539;28;20094;-96
2024/01/26 07:27:49;;;;;;;11.55;1.60;;;;;;;3.39;100.00;101256.03;4941112;28;20035;-96
2024/01/26 07:30:17;;;;;;;11.85;1.45;;;;;;;3.39;100.00;101248.19;4941428;28;20101;-96
2024/01/26 07:32:43;;;;;;;21.08;1.90;;;;;;;3.45;100.00;101260.94;4925087;28;20280;-96
2024/01/26 07:35:09;;;;;;;14.60;1.40;;;;;;;3.37;100.00;101273.56;4930095;28;20266;-96
2024/01/26 07:37:35;;;;;;;8.82;1.27;;;;;;;3.26;100.00;101279.31;4938501;28;20038;-96
2024/01/26 07:40:04;;;;;;;17.50;1.27;;;;;;;3.17;100.00;101275.41;4953821;28;20038;-96
2024/01/26 07:42:30;;;;;;;16.35;1.95;;;;;;;3.21;100.00;101296.06;4939833;28;20536;-96
2024/01/26 07:44:56;;;;;;;6.60;1.17;;;;;;;3.14;100.00;101280.78;4920419;28;20514;-96
2024/01/26 07:47:22;;;;;;;16.67;3.10;;;;;;;3.16;100.00;101302.44;4969048;28;20145;-96
2024/01/26 07:49:48;;;;;;;9.00;1.13;;;;;;;3.16;100.00;101292.84;4939857;28;20030;-96
2024/01/26 07:52:15;;;;;;;8.63;1.35;;;;;;;3.25;100.00;101304.59;4932548;28;20098;-96
2024/01/26 07:54:41;;;;;;;11.32;1.50;;;;;;;3.16;100.00;101294.59;4951954;28;20583;-96
2024/01/26 08:00:47;;;;;;;;;;;;;;;3.17;100.00;101315.41;4991347;28;20038;-96
2024/01/26 08:03:13;;;;;;;9.98;1.80;;;;;;;3.15;100.00;101325.13;4959681;28;20003;-96
2024/01/26 08:05:39;;;;;;;13.00;1.77;;;;;;;3.15;100.00;101319.88;4930446;28;20038;-96
2024/01/26 08:08:05;;;;;;;12.05;1.80;;;;;;;3.17;100.00;101338.09;4925748;28;20038;-96
2024/01/26 08:10:31;;;;;;;8.27;1.83;;;;;;;3.15;100.00;101337.31;4926328;28;20043;-96
2024/01/26 08:12:57;;;;;;;6.72;1.13;;;;;;;3.16;100.00;101352.06;4939489;28;20074;-96
2024/01/26 08:15:22;;;;;;;11.20;2.13;;;;;;;3.12;100.00;101347.91;4925017;28;20523;-96
2024/01/26 08:17:49;;;;;;;13.98;1.67;;;;;;;3.13;100.00;101354.81;4950780;28;20039;-96
2024/01/26 08:20:15;;;;;;;14.40;1.63;;;;;;;3.12;100.00;101358.38;4963287;28;20062;-96
2024/01/26 08:22:43;;;;;;;11.45;1.27;;;;;;;3.04;100.00;101362.16;4917347;28;20031;-96
2024/01/26 08:25:09;;;;;;;14.32;1.50;;;;;;;2.96;100.00;101359.09;4921483;28;20107;-96
2024/01/26 08:27:36;;;;;;;11.85;1.52;;;;;;;3.00;100.00;101368.47;4948329;28;20031;-96
2024/01/26 08:30:03;;;;;;;13.40;1.23;;;;;;;2.98;100.00;101378.13;4974618;28;20031;-96
2024/01/26 08:32:30;;;;;;;13.82;1.20;;;;;;;3.00;100.00;101389.38;4960020;28;20553;-96
2024/01/26 08:34:56;;;;;;;9.38;1.42;;;;;;;3.01;100.00;101391.03;4945379;28;20062;-96
2024/01/26 08:37:23;;;;;;;11.80;1.35;;;;;;;2.99;100.00;101392.91;4930930;28;20034;-96
2024/01/26 08:39:49;;;;;;;10.82;1.20;;;;;;;3.06;100.00;101402.13;4931919;28;20026;-96
2024/01/26 08:42:16;;;;;;;16.10;2.00;;;;;;;3.01;100.00;101401.50;4973606;28;20374;-96
2024/01/26 08:44:42;;;;;;;10.30;2.45;;;;;;;2.97;100.00;101407.78;4929449;28;20034;-96
2024/01/26 08:47:08;;;;;;;12.43;1.65;;;;;;;2.98;100.00;101412.94;4931702;28;20053;-96
2024/01/26 08:49:34;;;;;;;18.25;2.63;;;;;;;2.99;100.00;101421.63;4946967;28;20229;-96
2024/01/26 08:52:01;;;;;;;14.55;2.28;;;;;;;3.00;100.00;101418.09;4954061;28;20109;-96
2024/01/26 08:54:27;;;;;;;13.57;1.88;;;;;;;3.07;100.00;101422.09;4948453;28;20043;-96
2024/01/26 08:56:53;;;;;;;9.95;1.92;;;;;;;3.06;100.00;101428.25;4942246;28;20034;-96
2024/01/26 08:59:19;;;;;;;9.40;2.00;;;;;;;3.14;100.00;101437.53;4940856;28;20034;-96
2024/01/26 09:01:47;;;;;;;8.60;1.10;;;;;;;3.19;100.00;101439.00;4942122;28;20102;-96
2024/01/26 09:04:16;;;;;;;9.23;1.67;;;;;;;3.19;100.00;101440.75;4963243;28;20035;-96
2024/01/26 09:06:45;;;;;;;14.98;2.38;;;;;;;3.23;100.00;101444.94;4973982;28;20035;-96
2024/01/26 09:09:13;;;;;;;14.40;2.53;;;;;;;3.25;100.00;101450.91;4963846;28;20025;-96
2024/01/26 09:11:40;;;;;;;12.82;2.60;;;;;;;3.30;100.00;101446.31;4942423;28;20118;-96
2024/01/26 09:14:07;;;;;;;19.13;3.22;;;;;;;3.38;100.00;101453.81;4963644;28;20105;-96
2024/01/26 09:16:35;;;;;;;16.60;2.10;;;;;;;3.41;100.00;101465.91;4968803;28;20069;-96
2024/01/26 09:19:04;;;;;;;17.20;1.58;;;;;;;3.53;100.00;101472.31;4975648;28;20031;-96
2024/01/26 09:21:32;;;;;;;9.23;1.60;;;;;;;3.43;100.00;101477.97;4975245;28;20026;-96
2024/01/26 09:24:01;;;;;;;11.85;2.05;;;;;;;3.42;100.00;101472.81;4946332;28;20055;-96
2024/01/26 09:26:28;;;;;;;10.20;1.17;;;;;;;3.47;100.00;101483.91;4940566;29;20059;-96
2024/01/26 09:28:54;;;;;;;13.05;1.63;;;;;;;3.50;100.00;101489.00;4920241;28;20031;-96
2024/01/26 09:31:21;;;;;;;18.05;1.88;;;;;;;3.57;100.00;101505.22;4939186;28;20043;-96
2024/01/26 09:33:46;;;;;;;9.90;1.33;;;;;;;3.65;100.00;101502.22;4918813;29;20413;-96
2024/01/26 09:36:13;;;;;;;10.40;1.63;;;;;;;3.68;100.00;101504.72;4969881;28;20059;-96
2024/01/26 09:38:40;;;;;;;20.13;1.45;;;;;;;3.76;100.00;101506.97;4939105;29;20046;-96
2024/01/26 09:41:07;;;;;;;20.98;1.92;;;;;;;3.79;100.00;101512.88;4956423;28;20039;-96
2024/01/26 09:43:35;;;;;;;14.02;1.85;;;;;;;3.82;100.00;101507.50;4951073;28;20115;-96
2024/01/26 09:46:04;;;;;;;14.40;1.70;;;;;;;3.87;100.00;101511.69;4949704;28;20095;-96
2024/01/26 09:48:39;;;;;;;17.35;1.88;;;;;;;3.99;100.00;101515.47;4983670;28;20031;-96
2024/01/26 09:51:07;;;;;;;10.68;1.77;;;;;;;4.01;100.00;101517.09;4999867;28;20394;-96
2024/01/26 09:53:37;;;;;;;15.75;1.52;;;;;;;4.13;100.00;101530.47;4916745;29;20044;-96
2024/01/26 09:56:06;;;;;;;15.55;1.60;;;;;;;4.13;100.00;101520.88;4945791;28;20096;-94
2024/01/26 09:58:31;;;;;;;10.32;2.05;;;;;;;4.14;100.00;101514.72;4941923;28;20129;-95
2024/01/26 10:00:57;;;;;;;10.32;1.42;;;;;;;4.18;100.00;101524.13;4939588;28;20138;-96
2024/01/26 10:03:25;;;;;;;9.73;1.92;;;;;;;4.25;100.00;101532.53;4922792;28;20099;-96
2024/01/26 10:06:41;;;;;;;;;;;;;;;;;;;;;
2024/01/26 10:09:10;;;;;;;16.42;1.70;;;;;;;4.33;100.00;101537.38;4953439;28;20024;-96
2024/01/26 10:11:37;;;;;;;11.73;1.50;;;;;;;4.36;100.00;101538.97;4965850;28;20054;-96
2024/01/26 10:14:04;;;;;;;12.82;1.30;;;;;;;4.44;100.00;101547.31;4935427;29;20031;-96
2024/01/26 10:16:31;;;;;;;8.80;1.30;;;;;;;4.49;100.00;101554.94;4947689;28;20039;-96
2024/01/26 10:18:58;;;;;;;14.35;1.52;;;;;;;4.58;100.00;101557.94;4915249;29;20036;-95
2024/01/26 10:21:24;;;;;;;10.50;1.63;;;;;;;4.66;100.00;101568.03;4952360;29;20067;-96
2024/01/26 10:23:50;;;;;;;14.25;2.58;;;;;;;4.68;100.00;101563.53;4933031;29;20052;-95
2024/01/26 10:26:16;;;;;;;12.30;2.10;;;;;;;4.78;100.00;101574.41;4986496;28;20047;-96
2024/01/26 10:28:43;;;;;;;14.98;2.30;;;;;;;4.81;100.00;101576.84;4983548;28;20031;-96
2024/01/26 10:31:09;;;;;;;12.70;1.95;;;;;;;4.88;100.00;101574.78;4945183;28;20118;-96
2024/01/26 10:33:40;;;;;;;11.93;1.83;;;;;;;4.95;100.00;101591.88;4946781;28;20039;-96
2024/01/26 10:36:09;;;;;;;20.70;2.10;;;;;;;5.08;100.00;101593.88;4953399;28;20035;-96
2024/01/26 10:38:35;;;;;;;13.07;2.10;;;;;;;5.12;100.00;101594.53;4918258;28;20091;-93
2024/01/26 10:41:03;;;;;;;10.38;1.77;;;;;;;5.15;100.00;101599.63;4935652;29;20019;-96
2024/01/26 10:43:34;;;;;;;13.77;1.58;;;;;;;5.24;100.00;101614.88;4952807;28;20049;-96
2024/01/26 10:46:02;;;;;;;20.23;2.28;;;;;;;5.29;100.00;101622.50;4993736;28;20047;-96
2024/01/26 10:48:32;;;;;;;9.27;1.30;;;;;;;5.39;100.00;101630.72;4961727;28;20031;-96
2024/01/26 10:51:00;;;;;;;12.40;1.85;;;;;;;5.42;100.00;101623.56;4950654;28;20047;-96
2024/01/26 10:53:27;;;;;;;16.42;2.13;;;;;;;5.54;100.00;101640.41;4959491;28;20035;-96
2024/01/26 10:55:58;;;;;;;16.63;1.90;;;;;;;5.70;100.00;101642.22;4940042;28;20054;-96
2024/01/26 10:58:24;;;;;;;10.35;1.58;;;;;;;5.79;100.00;101633.00;4919040;28;20030;-96
2024/01/26 11:00:51;;;;;;;11.25;1.77;;;;;;;5.92;100.00;101646.28;4940824;29;20024;-96
2024/01/26 11:03:20;;;;;;;10.82;2.10;;;;;;;6.00;100.00;101646.72;4951706;28;20110;-96
2024/01/26 11:05:50;;;;;;;15.48;2.10;;;;;;;6.07;100.00;101648.09;5007195;28;20031;-96
2024/01/26 11:08:24;;;;;;;10.77;1.33;;;;;;;6.17;100.00;101665.97;4937109;29;20058;-96
2024/01/26 11:10:52;;;;;;;15.43;1.95;;;;;;;6.13;100.00;101665.28;4975148;28;20099;-96
2024/01/26 11:13:18;;;;;;;16.77;1.77;;;;;;;6.20;100.00;101671.03;4946264;28;20035;-96
2024/01/26 11:15:47;;;;;;;12.43;1.45;;;;;;;6.18;100.00;101678.19;4946361;28;20063;-96
2024/01/26 11:18:24;;;;;;;10.45;1.88;;;;;;;6.18;100.00;101689.50;4969024;28;20027;-96
2024/01/26 11:20:51;;;;;;;15.52;1.95;;;;;;;6.03;100.00;101687.69;4941429;28;20043;-96
2024/01/26 11:23:21;;;;;;;12.77;1.33;;;;;;;6.08;100.00;101697.03;4944892;28;20061;-96
2024/01/26 11:26:00;;;;;;;10.55;1.77;;;;;;;6.07;100.00;101707.63;4947778;28;20049;-96
2024/01/26 11:28:28;;;;;;;11.88;2.15;;;;;;;5.98;100.00;101687.09;4951891;28;20050;-96
2024/01/26 11:30:57;;;;;;;16.40;1.58;;;;;;;5.99;100.00;101694.06;4941536;28;20078;-96
2024/01/26 11:33:23;;;;;;;10.98;1.98;;;;;;;5.95;100.00;101691.59;4924073;28;20038;-96
2024/01/26 11:36:12;;;;;;;9.68;1.48;;;;;;;5.95;100.00;101693.38;4945911;28;20030;-96
2024/01/26 11:38:45;;;;;;;15.52;2.00;;;;;;;6.02;100.00;101696.50;4971377;28;20034;-96
2024/01/26 11:41:12;;;;;;;10.25;1.65;;;;;;;6.03;100.00;101691.19;4943388;28;20039;-96
2024/01/26 11:43:45;;;;;;;15.95;2.83;;;;;;;6.18;100.00;101702.63;4958975;28;20067;-96
2024/01/26 11:49:17;;;;;;;12.70;3.33;;;;;;;6.36;100.00;101704.31;4945061;28;20133;-88
2024/01/26 11:51:47;;;;;;;17.30;6.78;;;;;;;6.44;100.00;101710.88;4915907;29;20623;-90
2024/01/26 11:54:24;;;;;;;21.35;9.60;;;;;;;6.63;100.00;101708.97;4981485;23;20041;-93
2024/01/26 11:57:23;;;;;;;19.23;8.18;;;;;;;6.66;100.00;101695.66;4972865;28;20563;-89
2024/01/26 12:00:20;;;;;;;23.17;11.75;;;;;;;6.79;100.00;101703.69;4969764;28;20041;-91
2024/01/26 12:02:49;;;;;;;16.60;7.47;;;;;;;6.84;100.00;101709.53;4992800;28;20041;-87
2024/01/26 12:09:51;;;;;;;21.33;8.10;;;;;;;7.06;100.00;101706.50;5006084;28;20025;-92
2024/01/26 12:12:22;;;;;;;15.38;6.40;;;;;;;7.24;100.00;101700.25;4954612;28;20034;-92
2024/01/26 12:15:58;;;;;;;;;;;;;;;;;;;;;
2024/01/26 12:19:14;;;;;;;22.90;8.00;;;;;;;7.56;100.00;101693.03;5012079;28;20030;-88
2024/01/26 12:22:12;;;;;;;23.13;6.90;;;;;;;7.70;100.00;101683.47;4960559;28;20579;-90
2024/01/26 12:25:09;;;;;;;25.85;6.35;;;;;;;7.82;100.00;101687.09;4978364;28;20046;-88
2024/01/26 12:28:20;;;;;;;24.13;6.53;;;;;;;7.85;100.00;101680.81;4974788;28;20036;-90
2024/01/26 12:32:26;;;;;;;20.10;5.00;;;;;;;7.78;100.00;101675.94;4994151;28;20092;-91
2024/01/26 12:35:12;;;;;;;16.85;5.53;;;;;;;7.75;100.00;101670.00;4975461;28;20153;-87
2024/01/26 12:38:15;;;;;;;13.02;3.92;;;;;;;7.82;100.00;101687.09;5011496;28;20038;-90
2024/01/26 12:40:42;;;;;;;14.32;3.00;;;;;;;7.73;100.00;101666.63;4998113;28;20054;-91
2024/01/26 12:44:01;;;;;;;17.52;5.32;;;;;;;7.75;100.00;101662.97;4974221;28;20041;-90
2024/01/26 12:50:51;;;;;;;20.70;6.75;;;;;;;7.89;100.00;101666.50;5008666;28;20477;-91
2024/01/26 12:53:43;;;;;;;27.70;14.68;;;;;;;7.97;100.00;101673.94;4973351;28;20057;-90
2024/01/26 13:00:43;;;;;;;28.40;12.63;;;;;;;8.16;100.00;101668.34;5008423;28;20044;-92
2024/01/26 13:04:04;;;;;;;33.50;18.30;;;;;;;8.21;100.00;101663.63;5011188;28;20044;-89
2024/01/26 13:07:22;;;;;;;12.70;5.85;;;;;;;8.25;100.00;101673.00;4992098;28;20128;-90
2024/01/26 13:10:00;;;;;;;15.55;4.32;;;;;;;8.34;100.00;101682.13;4996323;28;20077;-90
2024/01/26 13:13:12;;;;;;;10.40;3.50;;;;;;;8.37;100.00;101679.31;4995397;28;20072;-91
2024/01/26 13:16:18;;;;;;;10.75;2.08;;;;;;;8.43;100.00;101676.25;4968302;28;20479;-92
2024/01/26 13:18:46;;;;;;;9.90;2.20;;;;;;;8.44;100.00;101671.84;4992773;28;20045;-89
2024/01/26 13:21:48;;;;;;;8.80;2.45;;;;;;;8.53;100.00;101679.16;4977035;28;20034;-93
2024/01/26 13:24:36;;;;;;;8.23;2.25;;;;;;;8.53;100.00;101673.03;4976302;28;20505;-91
2024/01/26 13:27:38;;;;;;;13.70;2.03;;;;;;;8.62;100.00;101677.72;4952306;28;20061;-91
2024/01/26 13:30:12;;;;;;;13.93;1.95;;;;;;;8.67;100.00;101662.47;4936496;28;20043;-90
2024/01/26 13:32:43;;;;;;;12.32;2.33;;;;;;;8.60;100.00;101655.88;4922328;28;21193;-88
2024/01/26 13:35:30;;;;;;;9.85;2.05;;;;;;;8.57;100.00;101677.16;4953800;28;20049;-90
2024/01/26 13:38:14;;;;;;;13.00;1.52;;;;;;;8.48;100.00;101672.47;4937327;28;20038;-92
2024/01/26 13:40:41;;;;;;;9.48;2.05;;;;;;;8.34;100.00;101670.75;4943389;28;21562;-90
2024/01/26 13:43:32;;;;;;;12.98;2.05;;;;;;;8.34;100.00;101674.22;4958259;28;20043;-92
2024/01/26 13:46:31;;;;;;;;;;;;;;;;;;;;;
2024/01/26 13:49:28;;;;;;;13.68;2.08;;;;;;;8.31;100.00;101669.97;4942701;28;20113;-91
2024/01/26 13:51:56;;;;;;;15.10;2.22;;;;;;;8.37;100.00;101673.19;4952723;28;20045;-89
2024/01/26 13:54:22;;;;;;;10.70;2.30;;;;;;;8.32;100.00;101676.09;4980597;28;20514;-88
2024/01/26 13:56:53;;;;;;;14.38;2.28;;;;;;;8.30;100.00;101678.84;4987076;28;20041;-87
2024/01/26 13:59:29;;;;;;;13.60;1.80;;;;;;;8.47;100.00;101686.59;5008538;28;20049;-90
2024/01/26 14:02:38;;;;;;;9.98;1.55;;;;;;;8.42;100.00;101679.00;4978348;28;20058;-93
2024/01/26 14:05:12;;;;;;;9.93;2.00;;;;;;;8.44;100.00;101669.22;4985533;28;20042;-91
2024/01/26 14:11:38;;;;;;;13.50;2.30;;;;;;;8.44;100.00;101667.41;4978613;28;20074;-92
2024/01/26 14:14:07;;;;;;;13.43;1.65;;;;;;;8.51;100.00;101674.91;4924335;29;20508;-91
2024/01/26 14:16:52;;;;;;;8.45;2.10;;;;;;;8.63;100.00;101675.94;4886508;29;20051;-92
2024/01/26 14:19:21;;;;;;;13.00;1.83;;;;;;;8.69;100.00;101670.25;4968301;28;20519;-89
2024/01/26 14:22:03;;;;;;;12.20;1.70;;;;;;;8.72;100.00;101662.16;4959299;28;20248;-92
2024/01/26 14:24:33;;;;;;;10.18;1.50;;;;;;;8.87;100.00;101675.25;4983519;28;20087;-91
2024/01/26 14:27:29;;;;;;;11.57;1.40;;;;;;;8.83;100.00;101660.56;4984926;28;20118;-95
2024/01/26 14:30:20;;;;;;;7.45;1.70;;;;;;;8.83;100.00;101671.13;4979403;28;20519;-96
2024/01/26 14:33:14;;;;;;;14.73;1.63;;;;;;;8.72;100.00;101670.06;4982167;28;20125;-94
2024/01/26 14:36:15;;;;;;;11.63;1.73;;;;;;;8.72;100.00;101664.78;4973881;28;20069;-95
2024/01/26 14:42:24;;;;;;;8.50;1.58;;;;;;;8.62;100.00;101647.88;4979969;28;20044;-94
2024/01/26 14:44:56;;;;;;;14.77;2.10;;;;;;;8.61;100.00;101635.66;4965434;28;20038;-95
2024/01/26 14:52:05;;;;;;;12.95;1.75;;;;;;;8.66;100.00;101647.56;5008658;28;20042;-94
2024/01/26 14:55:24;;;;;;;15.10;2.58;;;;;;;8.68;100.00;101643.06;4979190;28;20466;-94
2024/01/26 15:01:45;;;;;;;12.35;1.42;;;;;;;8.63;100.00;101633.78;4987588;28;20041;-94
2024/01/26 15:07:54;;;;;;;16.92;5.18;;;;;;;8.71;100.00;101641.16;4998719;28;20120;-95